sensor_id;sensor_type;location;lat;lon;timestamp;P1;durP1;ratioP1;P2;durP2;ratioP2
9821;SDS011;4950;46.042;14.472;2023-06-24T00:01:02;5.47;;;2.72;;
9821;SDS011;4950;46.042;14.472;2023-06-24T00:03:29;3.65;;;2.40;;
9821;SDS011;4950;46.042;14.472;2023-06-24T00:05:56;5.28;;;2.50;;
9821;SDS011;4950;46.042;14.472;2023-06-24T00:08:28;6.22;;;2.47;;
9821;SDS011;4950;46.042;14.472;2023-06-24T00:11:01;4.78;;;2.72;;
9821;SDS011;4950;46.042;14.472;2023-06-24T00:13:28;7.72;;;2.50;;
9821;SDS011;4950;46.042;14.472;2023-06-24T00:15:55;5.72;;;2.70;;
9821;SDS011;4950;46.042;14.472;2023-06-24T00:18:21;6.72;;;2.72;;
9821;SDS011;4950;46.042;14.472;2023-06-24T00:20:49;7.15;;;2.70;;
9821;SDS011;4950;46.042;14.472;2023-06-24T00:23:16;5.10;;;2.50;;
9821;SDS011;4950;46.042;14.472;2023-06-24T00:25:49;5.53;;;2.30;;
9821;SDS011;4950;46.042;14.472;2023-06-24T00:28:17;6.47;;;2.92;;
9821;SDS011;4950;46.042;14.472;2023-06-24T00:30:44;6.05;;;3.10;;
9821;SDS011;4950;46.042;14.472;2023-06-24T00:33:10;4.55;;;2.85;;
9821;SDS011;4950;46.042;14.472;2023-06-24T00:35:38;5.07;;;2.38;;
9821;SDS011;4950;46.042;14.472;2023-06-24T00:38:05;5.57;;;2.97;;
9821;SDS011;4950;46.042;14.472;2023-06-24T00:40:32;6.18;;;2.60;;
9821;SDS011;4950;46.042;14.472;2023-06-24T00:42:59;7.07;;;3.05;;
9821;SDS011;4950;46.042;14.472;2023-06-24T00:45:28;5.25;;;2.60;;
9821;SDS011;4950;46.042;14.472;2023-06-24T00:47:56;6.35;;;2.63;;
9821;SDS011;4950;46.042;14.472;2023-06-24T00:50:23;5.15;;;2.58;;
9821;SDS011;4950;46.042;14.472;2023-06-24T00:52:50;6.95;;;3.03;;
9821;SDS011;4950;46.042;14.472;2023-06-24T00:55:17;8.38;;;3.17;;
9821;SDS011;4950;46.042;14.472;2023-06-24T00:57:45;4.63;;;2.67;;
9821;SDS011;4950;46.042;14.472;2023-06-24T01:00:16;8.27;;;3.08;;
9821;SDS011;4950;46.042;14.472;2023-06-24T01:02:46;5.20;;;2.47;;
9821;SDS011;4950;46.042;14.472;2023-06-24T01:07:40;4.50;;;2.25;;
9821;SDS011;4950;46.042;14.472;2023-06-24T01:10:08;4.32;;;2.58;;
9821;SDS011;4950;46.042;14.472;2023-06-24T01:12:37;8.60;;;2.95;;
9821;SDS011;4950;46.042;14.472;2023-06-24T01:15:05;7.75;;;2.80;;
9821;SDS011;4950;46.042;14.472;2023-06-24T01:17:34;4.38;;;2.30;;
9821;SDS011;4950;46.042;14.472;2023-06-24T01:20:06;8.27;;;3.35;;
9821;SDS011;4950;46.042;14.472;2023-06-24T01:22:47;6.30;;;2.53;;
9821;SDS011;4950;46.042;14.472;2023-06-24T01:25:32;8.75;;;2.72;;
9821;SDS011;4950;46.042;14.472;2023-06-24T01:28:18;7.15;;;2.42;;
9821;SDS011;4950;46.042;14.472;2023-06-24T01:30:55;6.00;;;2.58;;
9821;SDS011;4950;46.042;14.472;2023-06-24T01:33:36;6.80;;;2.53;;
9821;SDS011;4950;46.042;14.472;2023-06-24T01:36:08;5.75;;;2.63;;
9821;SDS011;4950;46.042;14.472;2023-06-24T01:38:41;6.07;;;2.90;;
9821;SDS011;4950;46.042;14.472;2023-06-24T01:41:13;6.28;;;3.17;;
9821;SDS011;4950;46.042;14.472;2023-06-24T01:43:44;8.23;;;2.92;;
9821;SDS011;4950;46.042;14.472;2023-06-24T01:46:12;7.82;;;2.80;;
9821;SDS011;4950;46.042;14.472;2023-06-24T01:48:43;7.22;;;2.90;;
9821;SDS011;4950;46.042;14.472;2023-06-24T01:51:11;5.72;;;2.90;;
9821;SDS011;4950;46.042;14.472;2023-06-24T01:53:42;6.50;;;3.53;;
9821;SDS011;4950;46.042;14.472;2023-06-24T01:56:13;6.55;;;2.80;;
9821;SDS011;4950;46.042;14.472;2023-06-24T01:58:41;9.18;;;3.35;;
9821;SDS011;4950;46.042;14.472;2023-06-24T02:01:10;8.88;;;3.25;;
9821;SDS011;4950;46.042;14.472;2023-06-24T02:03:38;8.32;;;3.63;;
9821;SDS011;4950;46.042;14.472;2023-06-24T02:06:08;7.10;;;3.78;;
9821;SDS011;4950;46.042;14.472;2023-06-24T02:08:36;7.47;;;3.25;;
9821;SDS011;4950;46.042;14.472;2023-06-24T02:11:05;7.50;;;3.20;;
9821;SDS011;4950;46.042;14.472;2023-06-24T02:13:34;7.82;;;3.90;;
9821;SDS011;4950;46.042;14.472;2023-06-24T02:16:06;6.78;;;3.03;;
9821;SDS011;4950;46.042;14.472;2023-06-24T02:18:35;8.20;;;3.15;;
9821;SDS011;4950;46.042;14.472;2023-06-24T02:21:08;9.98;;;3.33;;
9821;SDS011;4950;46.042;14.472;2023-06-24T02:23:36;6.97;;;3.42;;
9821;SDS011;4950;46.042;14.472;2023-06-24T02:26:04;6.53;;;2.97;;
9821;SDS011;4950;46.042;14.472;2023-06-24T02:28:31;7.07;;;3.53;;
9821;SDS011;4950;46.042;14.472;2023-06-24T02:30:59;7.88;;;2.78;;
9821;SDS011;4950;46.042;14.472;2023-06-24T02:33:27;5.15;;;2.70;;
9821;SDS011;4950;46.042;14.472;2023-06-24T02:35:53;5.80;;;2.95;;
9821;SDS011;4950;46.042;14.472;2023-06-24T02:38:21;6.82;;;3.47;;
9821;SDS011;4950;46.042;14.472;2023-06-24T02:40:48;7.10;;;3.73;;
9821;SDS011;4950;46.042;14.472;2023-06-24T02:43:16;6.07;;;3.30;;
9821;SDS011;4950;46.042;14.472;2023-06-24T02:45:43;9.35;;;3.03;;
9821;SDS011;4950;46.042;14.472;2023-06-24T02:48:10;5.80;;;3.15;;
9821;SDS011;4950;46.042;14.472;2023-06-24T02:50:38;6.25;;;3.20;;
9821;SDS011;4950;46.042;14.472;2023-06-24T02:53:06;6.22;;;2.85;;
9821;SDS011;4950;46.042;14.472;2023-06-24T02:55:34;6.93;;;3.50;;
9821;SDS011;4950;46.042;14.472;2023-06-24T02:58:02;8.60;;;3.35;;
9821;SDS011;4950;46.042;14.472;2023-06-24T03:00:32;4.90;;;2.88;;
9821;SDS011;4950;46.042;14.472;2023-06-24T03:02:59;4.85;;;3.17;;
9821;SDS011;4950;46.042;14.472;2023-06-24T03:05:26;6.15;;;3.10;;
9821;SDS011;4950;46.042;14.472;2023-06-24T03:07:54;6.78;;;3.33;;
9821;SDS011;4950;46.042;14.472;2023-06-24T03:10:22;9.30;;;3.00;;
9821;SDS011;4950;46.042;14.472;2023-06-24T03:12:51;5.60;;;2.60;;
9821;SDS011;4950;46.042;14.472;2023-06-24T03:17:45;6.80;;;3.03;;
9821;SDS011;4950;46.042;14.472;2023-06-24T03:20:12;6.60;;;2.92;;
9821;SDS011;4950;46.042;14.472;2023-06-24T03:22:39;5.82;;;2.78;;
9821;SDS011;4950;46.042;14.472;2023-06-24T03:25:06;9.55;;;3.20;;
9821;SDS011;4950;46.042;14.472;2023-06-24T03:27:33;7.13;;;3.25;;
9821;SDS011;4950;46.042;14.472;2023-06-24T03:30:01;6.60;;;2.90;;
9821;SDS011;4950;46.042;14.472;2023-06-24T03:32:28;5.37;;;3.13;;
9821;SDS011;4950;46.042;14.472;2023-06-24T03:34:54;4.88;;;2.80;;
9821;SDS011;4950;46.042;14.472;2023-06-24T03:37:21;6.18;;;3.30;;
9821;SDS011;4950;46.042;14.472;2023-06-24T03:39:47;4.60;;;2.60;;
9821;SDS011;4950;46.042;14.472;2023-06-24T03:42:15;7.22;;;3.00;;
9821;SDS011;4950;46.042;14.472;2023-06-24T03:44:41;7.80;;;3.50;;
9821;SDS011;4950;46.042;14.472;2023-06-24T03:47:09;7.63;;;3.05;;
9821;SDS011;4950;46.042;14.472;2023-06-24T03:49:36;7.87;;;3.03;;
9821;SDS011;4950;46.042;14.472;2023-06-24T03:52:03;6.10;;;3.35;;
9821;SDS011;4950;46.042;14.472;2023-06-24T03:54:33;14.98;;;3.08;;
9821;SDS011;4950;46.042;14.472;2023-06-24T03:57:00;6.32;;;3.08;;
9821;SDS011;4950;46.042;14.472;2023-06-24T03:59:27;8.35;;;2.88;;
9821;SDS011;4950;46.042;14.472;2023-06-24T04:01:53;5.38;;;3.08;;
9821;SDS011;4950;46.042;14.472;2023-06-24T04:04:21;6.85;;;2.92;;
9821;SDS011;4950;46.042;14.472;2023-06-24T04:06:48;6.75;;;2.67;;
9821;SDS011;4950;46.042;14.472;2023-06-24T04:09:15;6.57;;;3.33;;
9821;SDS011;4950;46.042;14.472;2023-06-24T04:11:41;7.60;;;3.00;;
9821;SDS011;4950;46.042;14.472;2023-06-24T04:14:08;6.40;;;2.70;;
9821;SDS011;4950;46.042;14.472;2023-06-24T04:16:34;6.53;;;2.85;;
9821;SDS011;4950;46.042;14.472;2023-06-24T04:19:01;5.88;;;2.83;;
9821;SDS011;4950;46.042;14.472;2023-06-24T04:21:29;6.95;;;3.03;;
9821;SDS011;4950;46.042;14.472;2023-06-24T04:23:56;8.00;;;3.08;;
9821;SDS011;4950;46.042;14.472;2023-06-24T04:26:23;5.65;;;2.78;;
9821;SDS011;4950;46.042;14.472;2023-06-24T04:28:49;5.30;;;2.97;;
9821;SDS011;4950;46.042;14.472;2023-06-24T04:31:16;6.63;;;3.00;;
9821;SDS011;4950;46.042;14.472;2023-06-24T04:33:42;6.43;;;2.63;;
9821;SDS011;4950;46.042;14.472;2023-06-24T04:36:09;5.50;;;3.00;;
9821;SDS011;4950;46.042;14.472;2023-06-24T04:38:37;5.63;;;3.05;;
9821;SDS011;4950;46.042;14.472;2023-06-24T04:41:03;6.70;;;3.27;;
9821;SDS011;4950;46.042;14.472;2023-06-24T04:43:30;6.18;;;3.50;;
9821;SDS011;4950;46.042;14.472;2023-06-24T04:45:57;6.90;;;3.33;;
9821;SDS011;4950;46.042;14.472;2023-06-24T04:48:24;6.43;;;3.40;;
9821;SDS011;4950;46.042;14.472;2023-06-24T04:50:50;6.88;;;3.22;;
9821;SDS011;4950;46.042;14.472;2023-06-24T04:53:18;6.93;;;3.50;;
9821;SDS011;4950;46.042;14.472;2023-06-24T04:55:46;6.82;;;3.28;;
9821;SDS011;4950;46.042;14.472;2023-06-24T04:58:13;5.43;;;3.20;;
9821;SDS011;4950;46.042;14.472;2023-06-24T05:00:39;5.78;;;3.38;;
9821;SDS011;4950;46.042;14.472;2023-06-24T05:03:06;9.98;;;3.70;;
9821;SDS011;4950;46.042;14.472;2023-06-24T05:05:33;7.80;;;3.33;;
9821;SDS011;4950;46.042;14.472;2023-06-24T05:07:59;5.10;;;2.95;;
9821;SDS011;4950;46.042;14.472;2023-06-24T05:10:26;6.05;;;3.33;;
9821;SDS011;4950;46.042;14.472;2023-06-24T05:12:54;9.98;;;3.50;;
9821;SDS011;4950;46.042;14.472;2023-06-24T05:15:20;6.68;;;3.38;;
9821;SDS011;4950;46.042;14.472;2023-06-24T05:17:47;6.60;;;3.35;;
9821;SDS011;4950;46.042;14.472;2023-06-24T05:20:13;5.72;;;3.15;;
9821;SDS011;4950;46.042;14.472;2023-06-24T05:25:09;10.60;;;3.80;;
9821;SDS011;4950;46.042;14.472;2023-06-24T05:27:35;7.00;;;3.15;;
9821;SDS011;4950;46.042;14.472;2023-06-24T05:30:04;6.75;;;2.90;;
9821;SDS011;4950;46.042;14.472;2023-06-24T05:32:31;6.53;;;2.80;;
9821;SDS011;4950;46.042;14.472;2023-06-24T05:34:58;6.78;;;3.40;;
9821;SDS011;4950;46.042;14.472;2023-06-24T05:37:24;7.25;;;2.97;;
9821;SDS011;4950;46.042;14.472;2023-06-24T05:39:51;6.38;;;3.33;;
9821;SDS011;4950;46.042;14.472;2023-06-24T05:42:18;6.43;;;2.95;;
9821;SDS011;4950;46.042;14.472;2023-06-24T05:44:44;8.02;;;3.70;;
9821;SDS011;4950;46.042;14.472;2023-06-24T05:47:12;7.45;;;3.72;;
9821;SDS011;4950;46.042;14.472;2023-06-24T05:49:39;7.20;;;3.20;;
9821;SDS011;4950;46.042;14.472;2023-06-24T05:52:06;7.55;;;3.42;;
9821;SDS011;4950;46.042;14.472;2023-06-24T05:54:32;6.22;;;3.30;;
9821;SDS011;4950;46.042;14.472;2023-06-24T05:56:59;10.40;;;3.60;;
9821;SDS011;4950;46.042;14.472;2023-06-24T05:59:26;6.70;;;3.38;;
9821;SDS011;4950;46.042;14.472;2023-06-24T06:01:52;4.95;;;3.22;;
9821;SDS011;4950;46.042;14.472;2023-06-24T06:04:20;6.18;;;3.45;;
9821;SDS011;4950;46.042;14.472;2023-06-24T06:06:47;5.73;;;3.03;;
9821;SDS011;4950;46.042;14.472;2023-06-24T06:09:13;8.02;;;3.47;;
9821;SDS011;4950;46.042;14.472;2023-06-24T06:11:40;6.75;;;3.58;;
9821;SDS011;4950;46.042;14.472;2023-06-24T06:14:07;6.65;;;3.40;;
9821;SDS011;4950;46.042;14.472;2023-06-24T06:16:33;9.75;;;3.63;;
9821;SDS011;4950;46.042;14.472;2023-06-24T06:19:00;9.15;;;3.60;;
9821;SDS011;4950;46.042;14.472;2023-06-24T06:21:28;7.95;;;3.35;;
9821;SDS011;4950;46.042;14.472;2023-06-24T06:23:54;4.97;;;3.00;;
9821;SDS011;4950;46.042;14.472;2023-06-24T06:26:21;8.40;;;3.75;;
9821;SDS011;4950;46.042;14.472;2023-06-24T06:28:49;5.57;;;3.10;;
9821;SDS011;4950;46.042;14.472;2023-06-24T06:31:16;6.60;;;3.30;;
9821;SDS011;4950;46.042;14.472;2023-06-24T06:33:43;6.72;;;3.03;;
9821;SDS011;4950;46.042;14.472;2023-06-24T06:36:09;10.73;;;3.72;;
9821;SDS011;4950;46.042;14.472;2023-06-24T06:38:37;7.30;;;3.53;;
9821;SDS011;4950;46.042;14.472;2023-06-24T06:41:04;9.75;;;4.03;;
9821;SDS011;4950;46.042;14.472;2023-06-24T06:43:31;6.53;;;3.70;;
9821;SDS011;4950;46.042;14.472;2023-06-24T06:45:58;8.30;;;3.78;;
9821;SDS011;4950;46.042;14.472;2023-06-24T06:48:25;9.35;;;3.78;;
9821;SDS011;4950;46.042;14.472;2023-06-24T06:50:52;8.18;;;3.67;;
9821;SDS011;4950;46.042;14.472;2023-06-24T06:53:19;6.53;;;3.60;;
9821;SDS011;4950;46.042;14.472;2023-06-24T06:55:47;6.43;;;3.20;;
9821;SDS011;4950;46.042;14.472;2023-06-24T06:58:14;10.13;;;3.53;;
9821;SDS011;4950;46.042;14.472;2023-06-24T07:00:40;9.00;;;3.53;;
9821;SDS011;4950;46.042;14.472;2023-06-24T07:03:07;7.57;;;3.58;;
9821;SDS011;4950;46.042;14.472;2023-06-24T07:05:33;4.40;;;2.97;;
9821;SDS011;4950;46.042;14.472;2023-06-24T07:08:00;7.63;;;3.50;;
9821;SDS011;4950;46.042;14.472;2023-06-24T07:10:26;6.95;;;3.35;;
9821;SDS011;4950;46.042;14.472;2023-06-24T07:12:54;7.05;;;3.50;;
9821;SDS011;4950;46.042;14.472;2023-06-24T07:15:23;5.82;;;3.45;;
9821;SDS011;4950;46.042;14.472;2023-06-24T07:17:50;8.68;;;3.33;;
9821;SDS011;4950;46.042;14.472;2023-06-24T07:20:17;7.50;;;3.67;;
9821;SDS011;4950;46.042;14.472;2023-06-24T07:22:44;5.30;;;3.35;;
9821;SDS011;4950;46.042;14.472;2023-06-24T07:25:11;5.68;;;3.63;;
9821;SDS011;4950;46.042;14.472;2023-06-24T07:27:38;8.27;;;3.72;;
9821;SDS011;4950;46.042;14.472;2023-06-24T07:30:06;7.78;;;3.35;;
9821;SDS011;4950;46.042;14.472;2023-06-24T07:32:33;5.82;;;3.20;;
9821;SDS011;4950;46.042;14.472;2023-06-24T07:35:00;6.85;;;3.80;;
9821;SDS011;4950;46.042;14.472;2023-06-24T07:37:27;6.85;;;3.75;;
9821;SDS011;4950;46.042;14.472;2023-06-24T07:39:53;7.15;;;3.88;;
9821;SDS011;4950;46.042;14.472;2023-06-24T07:42:20;10.48;;;3.85;;
9821;SDS011;4950;46.042;14.472;2023-06-24T07:44:46;10.90;;;3.78;;
9821;SDS011;4950;46.042;14.472;2023-06-24T07:47:16;5.43;;;3.30;;
9821;SDS011;4950;46.042;14.472;2023-06-24T07:49:43;6.57;;;3.63;;
9821;SDS011;4950;46.042;14.472;2023-06-24T07:52:09;8.60;;;3.70;;
9821;SDS011;4950;46.042;14.472;2023-06-24T07:54:36;6.35;;;3.60;;
9821;SDS011;4950;46.042;14.472;2023-06-24T07:57:03;6.40;;;3.50;;
9821;SDS011;4950;46.042;14.472;2023-06-24T07:59:30;7.18;;;3.60;;
9821;SDS011;4950;46.042;14.472;2023-06-24T08:01:56;5.25;;;3.33;;
9821;SDS011;4950;46.042;14.472;2023-06-24T08:04:24;5.68;;;3.13;;
9821;SDS011;4950;46.042;14.472;2023-06-24T08:06:51;6.97;;;4.07;;
9821;SDS011;4950;46.042;14.472;2023-06-24T08:09:18;7.75;;;4.28;;
9821;SDS011;4950;46.042;14.472;2023-06-24T08:11:45;7.43;;;3.47;;
9821;SDS011;4950;46.042;14.472;2023-06-24T08:14:11;5.75;;;3.28;;
9821;SDS011;4950;46.042;14.472;2023-06-24T08:16:38;6.97;;;4.10;;
9821;SDS011;4950;46.042;14.472;2023-06-24T08:19:04;5.30;;;3.10;;
9821;SDS011;4950;46.042;14.472;2023-06-24T08:21:32;5.88;;;3.38;;
9821;SDS011;4950;46.042;14.472;2023-06-24T08:23:59;5.40;;;3.42;;
9821;SDS011;4950;46.042;14.472;2023-06-24T08:26:26;5.82;;;3.40;;
9821;SDS011;4950;46.042;14.472;2023-06-24T08:28:52;6.95;;;3.40;;
9821;SDS011;4950;46.042;14.472;2023-06-24T08:31:19;5.72;;;3.55;;
9821;SDS011;4950;46.042;14.472;2023-06-24T08:33:48;6.60;;;3.55;;
9821;SDS011;4950;46.042;14.472;2023-06-24T08:36:18;7.25;;;4.00;;
9821;SDS011;4950;46.042;14.472;2023-06-24T08:38:46;7.10;;;3.63;;
9821;SDS011;4950;46.042;14.472;2023-06-24T08:41:13;6.60;;;3.63;;
9821;SDS011;4950;46.042;14.472;2023-06-24T08:43:39;4.88;;;2.95;;
9821;SDS011;4950;46.042;14.472;2023-06-24T08:46:08;5.03;;;3.53;;
9821;SDS011;4950;46.042;14.472;2023-06-24T08:48:35;5.70;;;3.35;;
9821;SDS011;4950;46.042;14.472;2023-06-24T08:51:05;8.10;;;3.63;;
9821;SDS011;4950;46.042;14.472;2023-06-24T08:53:33;7.50;;;3.67;;
9821;SDS011;4950;46.042;14.472;2023-06-24T08:56:03;6.82;;;3.75;;
9821;SDS011;4950;46.042;14.472;2023-06-24T08:58:31;6.20;;;3.58;;
9821;SDS011;4950;46.042;14.472;2023-06-24T09:00:57;8.35;;;3.90;;
9821;SDS011;4950;46.042;14.472;2023-06-24T09:03:24;6.72;;;3.60;;
9821;SDS011;4950;46.042;14.472;2023-06-24T09:05:51;5.90;;;3.50;;
9821;SDS011;4950;46.042;14.472;2023-06-24T09:08:17;5.35;;;3.35;;
9821;SDS011;4950;46.042;14.472;2023-06-24T09:10:45;7.45;;;3.53;;
9821;SDS011;4950;46.042;14.472;2023-06-24T09:13:20;6.07;;;4.00;;
9821;SDS011;4950;46.042;14.472;2023-06-24T09:18:14;7.00;;;3.65;;
9821;SDS011;4950;46.042;14.472;2023-06-24T09:20:42;5.38;;;3.63;;
9821;SDS011;4950;46.042;14.472;2023-06-24T09:23:10;6.15;;;3.58;;
9821;SDS011;4950;46.042;14.472;2023-06-24T09:25:37;8.20;;;4.07;;
9821;SDS011;4950;46.042;14.472;2023-06-24T09:28:04;6.70;;;3.35;;
9821;SDS011;4950;46.042;14.472;2023-06-24T09:30:32;5.65;;;3.67;;
9821;SDS011;4950;46.042;14.472;2023-06-24T09:32:58;5.47;;;3.30;;
9821;SDS011;4950;46.042;14.472;2023-06-24T09:35:25;6.60;;;3.50;;
9821;SDS011;4950;46.042;14.472;2023-06-24T09:37:52;7.00;;;4.00;;
9821;SDS011;4950;46.042;14.472;2023-06-24T09:40:20;7.57;;;3.70;;
9821;SDS011;4950;46.042;14.472;2023-06-24T09:42:48;6.65;;;3.22;;
9821;SDS011;4950;46.042;14.472;2023-06-24T09:47:46;5.38;;;3.50;;
9821;SDS011;4950;46.042;14.472;2023-06-24T09:50:13;5.22;;;3.30;;
9821;SDS011;4950;46.042;14.472;2023-06-24T09:52:40;6.78;;;3.50;;
9821;SDS011;4950;46.042;14.472;2023-06-24T09:55:07;6.10;;;3.05;;
9821;SDS011;4950;46.042;14.472;2023-06-24T09:57:35;6.75;;;3.67;;
9821;SDS011;4950;46.042;14.472;2023-06-24T10:00:04;4.85;;;3.08;;
9821;SDS011;4950;46.042;14.472;2023-06-24T10:02:32;9.25;;;2.88;;
9821;SDS011;4950;46.042;14.472;2023-06-24T10:05:01;7.53;;;3.38;;
9821;SDS011;4950;46.042;14.472;2023-06-24T10:07:28;7.43;;;3.35;;
9821;SDS011;4950;46.042;14.472;2023-06-24T10:09:54;5.40;;;2.90;;
9821;SDS011;4950;46.042;14.472;2023-06-24T10:12:21;4.38;;;2.60;;
9821;SDS011;4950;46.042;14.472;2023-06-24T10:14:51;5.78;;;2.47;;
9821;SDS011;4950;46.042;14.472;2023-06-24T10:17:20;3.67;;;2.40;;
9821;SDS011;4950;46.042;14.472;2023-06-24T10:19:47;5.60;;;3.47;;
9821;SDS011;4950;46.042;14.472;2023-06-24T10:22:15;5.03;;;3.00;;
9821;SDS011;4950;46.042;14.472;2023-06-24T10:24:42;6.90;;;3.42;;
9821;SDS011;4950;46.042;14.472;2023-06-24T10:27:13;6.68;;;3.40;;
9821;SDS011;4950;46.042;14.472;2023-06-24T10:29:44;6.00;;;3.28;;
9821;SDS011;4950;46.042;14.472;2023-06-24T10:32:12;4.65;;;3.03;;
9821;SDS011;4950;46.042;14.472;2023-06-24T10:34:39;6.78;;;2.92;;
9821;SDS011;4950;46.042;14.472;2023-06-24T10:37:18;6.28;;;3.22;;
9821;SDS011;4950;46.042;14.472;2023-06-24T10:39:46;4.53;;;2.88;;
9821;SDS011;4950;46.042;14.472;2023-06-24T10:45:14;5.75;;;3.10;;
9821;SDS011;4950;46.042;14.472;2023-06-24T10:47:43;7.50;;;3.40;;
9821;SDS011;4950;46.042;14.472;2023-06-24T10:50:12;7.28;;;2.90;;
9821;SDS011;4950;46.042;14.472;2023-06-24T10:52:41;8.27;;;2.97;;
9821;SDS011;4950;46.042;14.472;2023-06-24T10:55:09;10.38;;;2.70;;
9821;SDS011;4950;46.042;14.472;2023-06-24T10:57:36;7.60;;;3.03;;
9821;SDS011;4950;46.042;14.472;2023-06-24T11:00:03;6.22;;;3.20;;
9821;SDS011;4950;46.042;14.472;2023-06-24T11:02:31;6.22;;;2.72;;
9821;SDS011;4950;46.042;14.472;2023-06-24T11:04:58;4.75;;;2.83;;
9821;SDS011;4950;46.042;14.472;2023-06-24T11:07:26;6.72;;;3.28;;
9821;SDS011;4950;46.042;14.472;2023-06-24T11:09:56;4.40;;;2.50;;
9821;SDS011;4950;46.042;14.472;2023-06-24T11:12:25;3.20;;;2.05;;
9821;SDS011;4950;46.042;14.472;2023-06-24T11:14:55;4.78;;;2.20;;
9821;SDS011;4950;46.042;14.472;2023-06-24T11:17:22;3.60;;;2.33;;
9821;SDS011;4950;46.042;14.472;2023-06-24T11:19:49;4.03;;;2.20;;
9821;SDS011;4950;46.042;14.472;2023-06-24T11:22:16;4.25;;;2.55;;
9821;SDS011;4950;46.042;14.472;2023-06-24T11:24:42;4.60;;;2.60;;
9821;SDS011;4950;46.042;14.472;2023-06-24T11:27:10;5.38;;;3.10;;
9821;SDS011;4950;46.042;14.472;2023-06-24T11:29:37;5.60;;;3.35;;
9821;SDS011;4950;46.042;14.472;2023-06-24T11:32:06;5.53;;;3.40;;
9821;SDS011;4950;46.042;14.472;2023-06-24T11:34:36;5.85;;;3.35;;
9821;SDS011;4950;46.042;14.472;2023-06-24T11:37:11;5.25;;;3.25;;
9821;SDS011;4950;46.042;14.472;2023-06-24T11:39:38;6.45;;;3.67;;
9821;SDS011;4950;46.042;14.472;2023-06-24T11:42:05;5.35;;;3.38;;
9821;SDS011;4950;46.042;14.472;2023-06-24T11:44:35;4.35;;;2.75;;
9821;SDS011;4950;46.042;14.472;2023-06-24T11:47:05;9.00;;;3.60;;
9821;SDS011;4950;46.042;14.472;2023-06-24T11:49:32;5.60;;;3.30;;
9821;SDS011;4950;46.042;14.472;2023-06-24T11:52:13;5.90;;;3.67;;
9821;SDS011;4950;46.042;14.472;2023-06-24T11:54:40;5.75;;;3.35;;
9821;SDS011;4950;46.042;14.472;2023-06-24T11:57:07;4.63;;;3.13;;
9821;SDS011;4950;46.042;14.472;2023-06-24T11:59:36;8.00;;;3.63;;
9821;SDS011;4950;46.042;14.472;2023-06-24T12:02:02;5.32;;;3.35;;
9821;SDS011;4950;46.042;14.472;2023-06-24T12:04:29;6.57;;;3.10;;
9821;SDS011;4950;46.042;14.472;2023-06-24T12:06:57;5.60;;;2.20;;
9821;SDS011;4950;46.042;14.472;2023-06-24T12:09:24;7.63;;;2.13;;
9821;SDS011;4950;46.042;14.472;2023-06-24T12:11:50;3.75;;;1.52;;
9821;SDS011;4950;46.042;14.472;2023-06-24T12:14:17;2.03;;;1.42;;
9821;SDS011;4950;46.042;14.472;2023-06-24T12:16:46;1.08;;;0.90;;
9821;SDS011;4950;46.042;14.472;2023-06-24T12:19:12;0.95;;;0.85;;
9821;SDS011;4950;46.042;14.472;2023-06-24T12:21:39;1.17;;;0.88;;
9821;SDS011;4950;46.042;14.472;2023-06-24T12:24:05;1.13;;;0.93;;
9821;SDS011;4950;46.042;14.472;2023-06-24T12:26:32;1.88;;;1.40;;
9821;SDS011;4950;46.042;14.472;2023-06-24T12:28:59;4.22;;;0.95;;
9821;SDS011;4950;46.042;14.472;2023-06-24T12:31:25;1.75;;;0.95;;
9821;SDS011;4950;46.042;14.472;2023-06-24T12:33:53;3.88;;;1.00;;
9821;SDS011;4950;46.042;14.472;2023-06-24T12:36:20;1.00;;;0.60;;
9821;SDS011;4950;46.042;14.472;2023-06-24T12:38:47;1.45;;;0.68;;
9821;SDS011;4950;46.042;14.472;2023-06-24T12:41:14;0.68;;;0.68;;
9821;SDS011;4950;46.042;14.472;2023-06-24T12:43:40;0.70;;;0.70;;
9821;SDS011;4950;46.042;14.472;2023-06-24T12:46:07;1.67;;;0.70;;
9821;SDS011;4950;46.042;14.472;2023-06-24T12:48:36;1.95;;;1.02;;
9821;SDS011;4950;46.042;14.472;2023-06-24T12:51:04;5.13;;;0.60;;
9821;SDS011;4950;46.042;14.472;2023-06-24T12:53:31;4.05;;;0.70;;
9821;SDS011;4950;46.042;14.472;2023-06-24T12:55:58;0.90;;;0.70;;
9821;SDS011;4950;46.042;14.472;2023-06-24T12:58:24;0.50;;;0.50;;
9821;SDS011;4950;46.042;14.472;2023-06-24T13:00:52;1.30;;;0.85;;
9821;SDS011;4950;46.042;14.472;2023-06-24T13:03:18;0.85;;;0.65;;
9821;SDS011;4950;46.042;14.472;2023-06-24T13:05:45;1.40;;;0.60;;
9821;SDS011;4950;46.042;14.472;2023-06-24T13:08:13;0.82;;;0.60;;
9821;SDS011;4950;46.042;14.472;2023-06-24T13:10:40;1.67;;;1.02;;
9821;SDS011;4950;46.042;14.472;2023-06-24T13:13:06;2.90;;;1.20;;
9821;SDS011;4950;46.042;14.472;2023-06-24T13:15:33;0.88;;;0.70;;
9821;SDS011;4950;46.042;14.472;2023-06-24T13:18:00;1.63;;;0.98;;
9821;SDS011;4950;46.042;14.472;2023-06-24T13:20:27;0.80;;;0.80;;
9821;SDS011;4950;46.042;14.472;2023-06-24T13:22:54;0.75;;;0.60;;
9821;SDS011;4950;46.042;14.472;2023-06-24T13:25:22;1.70;;;0.70;;
9821;SDS011;4950;46.042;14.472;2023-06-24T13:27:49;2.00;;;0.70;;
9821;SDS011;4950;46.042;14.472;2023-06-24T13:30:15;1.10;;;0.95;;
9821;SDS011;4950;46.042;14.472;2023-06-24T13:32:42;1.38;;;0.70;;
9821;SDS011;4950;46.042;14.472;2023-06-24T13:35:09;0.68;;;0.63;;
9821;SDS011;4950;46.042;14.472;2023-06-24T13:37:36;1.73;;;0.65;;
9821;SDS011;4950;46.042;14.472;2023-06-24T13:40:04;0.60;;;0.60;;
9821;SDS011;4950;46.042;14.472;2023-06-24T13:42:33;1.17;;;0.60;;
9821;SDS011;4950;46.042;14.472;2023-06-24T13:44:59;2.30;;;0.55;;
9821;SDS011;4950;46.042;14.472;2023-06-24T13:47:26;1.52;;;0.57;;
9821;SDS011;4950;46.042;14.472;2023-06-24T13:49:53;0.55;;;0.55;;
9821;SDS011;4950;46.042;14.472;2023-06-24T13:52:19;0.77;;;0.63;;
9821;SDS011;4950;46.042;14.472;2023-06-24T13:54:46;1.48;;;0.95;;
9821;SDS011;4950;46.042;14.472;2023-06-24T13:57:13;1.13;;;0.65;;
9821;SDS011;4950;46.042;14.472;2023-06-24T13:59:42;0.70;;;0.70;;
9821;SDS011;4950;46.042;14.472;2023-06-24T14:02:09;0.93;;;0.70;;
9821;SDS011;4950;46.042;14.472;2023-06-24T14:04:36;0.60;;;0.57;;
9821;SDS011;4950;46.042;14.472;2023-06-24T14:07:04;1.10;;;0.82;;
9821;SDS011;4950;46.042;14.472;2023-06-24T14:09:31;0.93;;;0.70;;
9821;SDS011;4950;46.042;14.472;2023-06-24T14:11:58;0.70;;;0.65;;
9821;SDS011;4950;46.042;14.472;2023-06-24T14:14:24;0.60;;;0.50;;
9821;SDS011;4950;46.042;14.472;2023-06-24T14:16:52;1.92;;;0.60;;
9821;SDS011;4950;46.042;14.472;2023-06-24T14:19:19;1.48;;;0.60;;
9821;SDS011;4950;46.042;14.472;2023-06-24T14:21:46;1.35;;;0.60;;
9821;SDS011;4950;46.042;14.472;2023-06-24T14:24:12;0.60;;;0.60;;
9821;SDS011;4950;46.042;14.472;2023-06-24T14:26:40;2.05;;;0.60;;
9821;SDS011;4950;46.042;14.472;2023-06-24T14:29:07;1.17;;;0.52;;
9821;SDS011;4950;46.042;14.472;2023-06-24T14:31:34;2.58;;;0.50;;
9821;SDS011;4950;46.042;14.472;2023-06-24T14:34:02;0.68;;;0.68;;
9821;SDS011;4950;46.042;14.472;2023-06-24T14:36:28;1.63;;;0.50;;
9821;SDS011;4950;46.042;14.472;2023-06-24T14:38:55;0.95;;;0.52;;
9821;SDS011;4950;46.042;14.472;2023-06-24T14:41:21;0.98;;;0.65;;
9821;SDS011;4950;46.042;14.472;2023-06-24T14:43:48;4.10;;;1.98;;
9821;SDS011;4950;46.042;14.472;2023-06-24T14:46:15;3.83;;;2.60;;
9821;SDS011;4950;46.042;14.472;2023-06-24T14:48:41;6.43;;;2.70;;
9821;SDS011;4950;46.042;14.472;2023-06-24T14:51:09;4.60;;;2.55;;
9821;SDS011;4950;46.042;14.472;2023-06-24T14:53:36;6.35;;;2.60;;
9821;SDS011;4950;46.042;14.472;2023-06-24T14:56:03;4.55;;;2.70;;
9821;SDS011;4950;46.042;14.472;2023-06-24T15:00:58;4.55;;;2.70;;
9821;SDS011;4950;46.042;14.472;2023-06-24T15:03:24;5.13;;;2.38;;
9821;SDS011;4950;46.042;14.472;2023-06-24T15:05:53;5.10;;;2.70;;
9821;SDS011;4950;46.042;14.472;2023-06-24T15:08:21;4.68;;;2.65;;
9821;SDS011;4950;46.042;14.472;2023-06-24T15:10:50;5.90;;;2.47;;
9821;SDS011;4950;46.042;14.472;2023-06-24T15:13:17;5.47;;;2.45;;
9821;SDS011;4950;46.042;14.472;2023-06-24T15:15:44;3.80;;;2.55;;
9821;SDS011;4950;46.042;14.472;2023-06-24T15:18:11;4.35;;;2.28;;
9821;SDS011;4950;46.042;14.472;2023-06-24T15:20:37;5.53;;;1.88;;